createdAt,value
2023-04-05T00:01:26.578Z,0.17
2023-04-05T00:03:54.628Z,0.14
2023-04-05T00:06:28.825Z,0.15
2023-04-05T00:08:55.927Z,-0.13
2023-04-05T00:11:23.065Z,-0.26
2023-04-05T00:13:49.952Z,-0.27
2023-04-05T00:16:17.119Z,-0.30
2023-04-05T00:18:49.768Z,-0.06
2023-04-05T00:21:16.630Z,-0.10
2023-04-05T00:23:45.034Z,-0.22
2023-04-05T00:26:12.436Z,-0.24
2023-04-05T00:28:43.380Z,-0.35
2023-04-05T00:31:10.187Z,-0.26
2023-04-05T00:33:36.696Z,-0.38
2023-04-05T00:36:10.089Z,-0.39
2023-04-05T00:38:36.880Z,-0.54
2023-04-05T00:41:03.632Z,-0.31
2023-04-05T00:43:30.376Z,-0.61
2023-04-05T00:45:57.096Z,-0.50
2023-04-05T00:48:23.945Z,-0.50
2023-04-05T00:50:51.190Z,-0.39
2023-04-05T00:53:21.661Z,-0.51
2023-04-05T00:55:49.418Z,-0.44
2023-04-05T00:58:18.148Z,-0.56
2023-04-05T01:00:48.868Z,-0.65
2023-04-05T01:03:16.990Z,-0.49
2023-04-05T01:05:46.748Z,-0.67
2023-04-05T01:08:31.243Z,-0.51
2023-04-05T01:10:59.500Z,-0.63
2023-04-05T01:13:26.025Z,-0.23
2023-04-05T01:15:52.570Z,-0.47
2023-04-05T01:18:19.305Z,-0.50
2023-04-05T01:20:52.919Z,-0.46
2023-04-05T01:23:30.939Z,-0.51
2023-04-05T01:26:11.864Z,-0.49
2023-04-05T01:28:57.862Z,-0.69
2023-04-05T01:31:32.348Z,-0.79
2023-04-05T01:34:02.148Z,-0.71
2023-04-05T01:36:37.136Z,-0.84
2023-04-05T01:39:05.482Z,-0.78
2023-04-05T01:41:32.007Z,-0.89
2023-04-05T01:43:58.554Z,-0.90
2023-04-05T01:46:25.130Z,-0.91
2023-04-05T01:48:51.698Z,-0.77
2023-04-05T01:51:20.168Z,-0.76
2023-04-05T01:53:46.840Z,-0.83
2023-04-05T01:56:14.139Z,-0.81
2023-04-05T01:58:40.800Z,-1.00
2023-04-05T02:01:07.444Z,-0.85
2023-04-05T02:03:34.987Z,-0.81
2023-04-05T02:06:01.582Z,-0.78
2023-04-05T02:08:28.122Z,-0.91
2023-04-05T02:10:54.728Z,-0.89
2023-04-05T02:13:25.928Z,-0.86
2023-04-05T02:15:52.411Z,-0.90
2023-04-05T02:18:22.323Z,-0.98
2023-04-05T02:20:50.462Z,-0.95
2023-04-05T02:23:18.633Z,-0.88
2023-04-05T02:25:45.437Z,-1.13
2023-04-05T02:28:12.094Z,-1.01
2023-04-05T02:30:39.086Z,-0.90
2023-04-05T02:33:05.822Z,-0.97
2023-04-05T02:35:34.936Z,-1.01
2023-04-05T02:38:01.951Z,-0.96
2023-04-05T02:40:28.433Z,-0.94
2023-04-05T02:42:54.879Z,-0.97
2023-04-05T02:45:21.431Z,-1.04
2023-04-05T02:47:48.940Z,-1.05
2023-04-05T02:50:20.371Z,-1.10
2023-04-05T02:52:48.096Z,-1.06
2023-04-05T02:55:14.850Z,-0.98
2023-04-05T02:57:43.627Z,-1.15
2023-04-05T03:00:46.037Z,-1.07
2023-04-05T03:03:13.027Z,-1.32
2023-04-05T03:05:43.374Z,-1.33
2023-04-05T03:08:18.762Z,-1.50
2023-04-05T03:10:55.542Z,-1.42
2023-04-05T03:13:22.015Z,-1.31
2023-04-05T03:15:53.237Z,-1.44
2023-04-05T03:18:20.590Z,-1.49
2023-04-05T03:20:49.905Z,-1.66
2023-04-05T03:23:20.291Z,-1.60
2023-04-05T03:25:50.623Z,-1.42
2023-04-05T03:28:18.337Z,-1.47
2023-04-05T03:30:49.111Z,-1.69
2023-04-05T03:33:19.305Z,-1.60
2023-04-05T03:35:48.929Z,-1.54
2023-04-05T03:38:15.941Z,-1.64
2023-04-05T03:40:52.117Z,-1.51
2023-04-05T03:43:18.580Z,-1.63
2023-04-05T03:45:45.454Z,-1.74
2023-04-05T03:48:12.140Z,-1.81
2023-04-05T03:50:38.794Z,-1.84
2023-04-05T03:53:05.308Z,-1.69
2023-04-05T03:55:32.342Z,-1.76
2023-04-05T03:58:03.293Z,-1.85
2023-04-05T04:00:34.387Z,-1.85
2023-04-05T04:03:10.423Z,-1.72
2023-04-05T04:05:40.980Z,-1.85
2023-04-05T04:08:09.602Z,-1.79
2023-04-05T04:10:37.186Z,-1.78
2023-04-05T04:13:10.482Z,-1.92
2023-04-05T04:15:36.964Z,-1.93
2023-04-05T04:18:16.153Z,-1.87
2023-04-05T04:21:10.791Z,-1.99
2023-04-05T04:23:57.503Z,-2.08
2023-04-05T04:26:45.521Z,-2.01
2023-04-05T04:29:38.870Z,-1.84
2023-04-05T04:32:51.895Z,-1.97
2023-04-05T04:35:39.586Z,-2.01
2023-04-05T04:38:26.689Z,-2.15
2023-04-05T04:41:02.555Z,-2.15
2023-04-05T04:43:43.662Z,-1.89
2023-04-05T04:46:30.728Z,-1.85
2023-04-05T04:49:06.589Z,-1.78
2023-04-05T04:51:33.441Z,-1.73
2023-04-05T04:53:59.993Z,-1.99
2023-04-05T04:56:27.093Z,-1.94
2023-04-05T04:58:58.116Z,-2.09
2023-04-05T05:01:25.285Z,-1.80
2023-04-05T05:03:52.219Z,-1.71
2023-04-05T05:06:23.617Z,-1.71
2023-04-05T05:08:50.426Z,-1.63
2023-04-05T05:11:16.926Z,-1.63
2023-04-05T05:13:43.450Z,-1.53
2023-04-05T05:16:17.366Z,-1.42
2023-04-05T05:18:45.185Z,-1.54
2023-04-05T05:21:11.889Z,-1.38
2023-04-05T05:23:38.365Z,-1.33
2023-04-05T05:26:04.981Z,-1.25
2023-04-05T05:28:31.473Z,-1.18
2023-04-05T05:30:57.925Z,-1.12
2023-04-05T05:33:25.493Z,-1.09
2023-04-05T05:35:52.609Z,-0.92
2023-04-05T05:38:19.271Z,-0.81
2023-04-05T05:40:45.761Z,-0.69
2023-04-05T05:43:12.248Z,-0.86
2023-04-05T05:45:38.911Z,-0.64
2023-04-05T05:48:05.557Z,-0.45
2023-04-05T05:50:32.953Z,-0.08
2023-04-05T05:53:01.411Z,-0.14
2023-04-05T05:55:28.365Z,0.36
2023-04-05T05:57:54.896Z,-0.10
2023-04-05T06:00:21.484Z,0.24
2023-04-05T06:02:48.052Z,0.42
2023-04-05T06:05:14.783Z,0.40
2023-04-05T06:07:41.324Z,0.61
2023-04-05T06:10:08.226Z,0.50
2023-04-05T06:12:34.860Z,0.76
2023-04-05T06:15:02.085Z,1.24
2023-04-05T06:17:28.848Z,1.27
2023-04-05T06:19:55.636Z,1.07
2023-04-05T06:22:23.535Z,1.57
2023-04-05T06:24:50.074Z,1.63
2023-04-05T06:27:16.617Z,1.77
2023-04-05T06:29:43.703Z,2.07
2023-04-05T06:32:10.248Z,1.78
2023-04-05T06:34:36.893Z,1.79
2023-04-05T06:37:03.501Z,2.07
2023-04-05T06:39:30.021Z,3.01
2023-04-05T06:41:56.669Z,2.38
2023-04-05T06:44:27.854Z,2.37
2023-04-05T06:46:54.305Z,2.55
2023-04-05T06:49:21.222Z,2.79
2023-04-05T06:51:47.677Z,2.81
2023-04-05T06:54:16.038Z,3.51
2023-04-05T06:56:43.317Z,3.51
2023-04-05T06:59:09.948Z,3.20
2023-04-05T07:01:36.613Z,3.35
2023-04-05T07:04:03.176Z,3.82
2023-04-05T07:06:29.752Z,3.79
2023-04-05T07:08:56.416Z,4.26
2023-04-05T07:11:22.883Z,4.79
2023-04-05T07:13:49.646Z,5.42
2023-04-05T07:16:18.132Z,5.04
2023-04-05T07:18:44.983Z,5.19
2023-04-05T07:21:11.687Z,4.86
2023-04-05T07:23:38.562Z,4.97
2023-04-05T07:26:05.213Z,3.98
2023-04-05T07:28:33.191Z,4.78
2023-04-05T07:30:59.704Z,5.40
2023-04-05T07:33:27.129Z,5.22
2023-04-05T07:35:54.320Z,4.58
2023-04-05T07:38:21.645Z,5.40
2023-04-05T07:40:48.702Z,6.09
2023-04-05T07:43:15.759Z,6.08
2023-04-05T07:45:42.272Z,4.62
2023-04-05T07:48:08.715Z,5.73
2023-04-05T07:50:36.518Z,6.68
2023-04-05T07:53:03.011Z,7.10
2023-04-05T07:55:29.521Z,7.05
2023-04-05T07:57:55.999Z,6.19
2023-04-05T08:00:23.416Z,7.77
2023-04-05T08:02:49.883Z,7.82
2023-04-05T08:05:16.537Z,7.82
2023-04-05T08:07:43.115Z,6.14
2023-04-05T08:10:09.885Z,8.07
2023-04-05T08:12:38.747Z,7.53
2023-04-05T08:15:05.864Z,7.12
2023-04-05T08:17:32.388Z,8.93
2023-04-05T08:19:58.973Z,9.43
2023-04-05T08:22:27.841Z,9.70
2023-04-05T08:24:54.341Z,8.14
2023-04-05T08:27:20.915Z,9.35
2023-04-05T08:29:47.440Z,7.61
2023-04-05T08:32:13.904Z,9.02
2023-04-05T08:34:40.565Z,9.63
2023-04-05T08:37:07.591Z,8.89
2023-04-05T08:39:36.863Z,9.78
2023-04-05T08:42:11.703Z,9.72
2023-04-05T08:44:40.958Z,9.17
2023-04-05T08:47:08.546Z,7.89
2023-04-05T08:49:35.209Z,8.77
2023-04-05T08:52:02.077Z,9.68
2023-04-05T08:54:28.583Z,9.65
2023-04-05T08:56:56.546Z,8.22
2023-04-05T08:59:23.496Z,7.83
2023-04-05T09:01:50.286Z,9.13
2023-04-05T09:04:18.289Z,10.17
2023-04-05T09:06:45.130Z,11.97
2023-04-05T09:09:12.027Z,10.47
2023-04-05T09:11:39.541Z,11.51
2023-04-05T09:14:06.363Z,11.74
2023-04-05T09:16:40.641Z,10.90
2023-04-05T09:19:07.743Z,12.26
2023-04-05T09:21:52.822Z,12.87
2023-04-05T09:24:30.196Z,12.70
2023-04-05T09:27:07.102Z,11.34
2023-04-05T09:29:33.717Z,8.59
2023-04-05T09:32:05.287Z,8.90
2023-04-05T09:34:32.981Z,9.29
2023-04-05T09:37:00.224Z,8.69
2023-04-05T09:39:30.530Z,9.08
2023-04-05T09:42:07.454Z,8.76
2023-04-05T09:44:56.672Z,8.20
2023-04-05T09:47:30.923Z,8.43
2023-04-05T09:50:00.217Z,8.72
2023-04-05T09:52:28.708Z,10.73
2023-04-05T09:54:56.712Z,9.85
2023-04-05T09:57:24.089Z,9.32
2023-04-05T09:59:50.628Z,10.91
2023-04-05T10:02:17.208Z,12.42
2023-04-05T10:04:45.384Z,11.73
2023-04-05T10:07:21.049Z,9.64
2023-04-05T10:09:48.519Z,11.53
2023-04-05T10:12:26.111Z,12.26
2023-04-05T10:14:52.857Z,12.20
2023-04-05T10:17:19.284Z,12.89
2023-04-05T10:20:04.189Z,11.89
2023-04-05T10:22:36.009Z,13.71
2023-04-05T10:25:05.694Z,14.04
2023-04-05T10:27:58.493Z,14.14
2023-04-05T10:30:25.440Z,13.98
2023-04-05T10:32:52.051Z,13.98
2023-04-05T10:35:31.539Z,14.03
2023-04-05T10:38:04.185Z,13.64
2023-04-05T10:40:32.738Z,13.96
2023-04-05T10:43:00.565Z,14.89
2023-04-05T10:45:27.319Z,12.12
2023-04-05T10:47:59.273Z,13.48
2023-04-05T10:50:25.932Z,13.85
2023-04-05T10:52:53.518Z,15.07
2023-04-05T10:55:21.518Z,15.58
2023-04-05T10:57:48.706Z,13.82
2023-04-05T11:00:15.871Z,15.33
2023-04-05T11:02:42.566Z,14.10
2023-04-05T11:05:28.862Z,13.54
2023-04-05T11:07:59.620Z,14.20
2023-04-05T11:10:26.626Z,15.14
2023-04-05T11:12:53.089Z,14.63
2023-04-05T11:15:37.939Z,14.35
2023-04-05T11:18:16.671Z,15.74
2023-04-05T11:20:44.610Z,15.98
2023-04-05T11:23:11.874Z,14.47
2023-04-05T11:25:40.336Z,15.29
2023-04-05T11:28:08.561Z,15.96
2023-04-05T11:30:56.648Z,14.80
2023-04-05T11:33:39.747Z,15.94
2023-04-05T11:36:06.929Z,13.44
2023-04-05T11:38:33.757Z,14.25
2023-04-05T11:41:07.699Z,13.96
2023-04-05T11:43:38.361Z,13.72
2023-04-05T11:46:05.301Z,13.14
2023-04-05T11:48:31.856Z,14.12
2023-04-05T11:50:58.458Z,13.77
2023-04-05T11:53:24.945Z,14.70
2023-04-05T11:55:51.726Z,15.08
2023-04-05T11:58:21.246Z,14.78
2023-04-05T12:00:56.699Z,15.62
2023-04-05T12:03:23.219Z,15.45
2023-04-05T12:05:50.973Z,13.93
2023-04-05T12:08:18.287Z,14.66
2023-04-05T12:10:45.091Z,15.11
2023-04-05T12:13:11.639Z,15.28
2023-04-05T12:15:40.738Z,13.95
2023-04-05T12:18:13.138Z,15.36
2023-04-05T12:20:39.894Z,14.78
2023-04-05T12:23:06.672Z,14.32
2023-04-05T12:25:33.413Z,14.33
2023-04-05T12:28:07.111Z,14.00
2023-04-05T12:30:36.613Z,13.53
2023-04-05T12:33:12.112Z,13.56
2023-04-05T12:35:39.214Z,13.75
2023-04-05T12:38:06.196Z,13.86
2023-04-05T12:40:36.250Z,14.85
2023-04-05T12:43:06.726Z,14.19
2023-04-05T12:45:44.122Z,14.23
2023-04-05T12:48:15.062Z,13.09
2023-04-05T12:50:45.478Z,13.64
2023-04-05T12:53:23.288Z,13.54
2023-04-05T12:55:51.216Z,14.25
2023-04-05T12:58:18.232Z,14.20
2023-04-05T13:00:45.351Z,15.11
2023-04-05T13:03:16.339Z,15.71
2023-04-05T13:05:43.066Z,14.19
2023-04-05T13:08:09.704Z,14.90
2023-04-05T13:10:36.181Z,14.67
2023-04-05T13:13:02.767Z,14.66
2023-04-05T13:15:29.193Z,14.27
2023-04-05T13:17:55.866Z,13.47
2023-04-05T13:20:22.614Z,14.88
2023-04-05T13:22:49.039Z,13.61
2023-04-05T13:25:15.666Z,13.10
2023-04-05T13:27:42.223Z,13.51
2023-04-05T13:30:09.216Z,13.53
2023-04-05T13:32:36.065Z,14.02
2023-04-05T13:35:02.811Z,13.72
2023-04-05T13:37:29.318Z,14.09
2023-04-05T13:39:55.841Z,14.31
2023-04-05T13:42:23.159Z,13.36
2023-04-05T13:44:49.764Z,12.94
2023-04-05T13:47:16.282Z,12.21
2023-04-05T13:49:43.069Z,12.55
2023-04-05T13:52:09.652Z,13.04
2023-04-05T13:54:36.107Z,13.00
2023-04-05T13:57:02.595Z,13.10
2023-04-05T13:59:29.240Z,12.98
2023-04-05T14:01:55.933Z,13.13
2023-04-05T14:04:22.580Z,12.42
2023-04-05T14:06:49.076Z,12.60
2023-04-05T14:09:15.951Z,13.44
2023-04-05T14:11:42.475Z,12.78
2023-04-05T14:14:08.944Z,12.00
2023-04-05T14:16:36.736Z,12.89
2023-04-05T14:19:03.406Z,11.80
2023-04-05T14:21:29.991Z,12.09
2023-04-05T14:23:57.916Z,12.83
2023-04-05T14:26:26.206Z,12.66
2023-04-05T14:28:53.292Z,11.64
2023-04-05T14:31:20.138Z,11.62
2023-04-05T14:33:46.759Z,11.93
2023-04-05T14:36:13.295Z,12.66
2023-04-05T14:38:39.979Z,11.60
2023-04-05T14:41:06.694Z,12.00
2023-04-05T14:43:33.552Z,12.37
2023-04-05T14:46:00.291Z,12.47
2023-04-05T14:48:28.067Z,11.98
2023-04-05T14:50:54.640Z,12.07
2023-04-05T14:53:22.741Z,11.99
2023-04-05T14:55:49.352Z,12.52
2023-04-05T14:58:16.893Z,11.86
2023-04-05T15:00:44.402Z,12.69
2023-04-05T15:03:11.060Z,11.97
2023-04-05T15:05:37.635Z,11.26
2023-04-05T15:08:04.203Z,10.98
2023-04-05T15:10:30.822Z,11.21
2023-04-05T15:12:57.563Z,10.75
2023-04-05T15:15:24.110Z,10.95
2023-04-05T15:17:50.992Z,11.30
2023-04-05T15:20:17.562Z,10.87
2023-04-05T15:22:44.130Z,11.46
2023-04-05T15:25:11.118Z,11.72
2023-04-05T15:27:37.744Z,12.45
2023-04-05T15:30:04.535Z,12.48
2023-04-05T15:32:33.826Z,12.66
2023-04-05T15:35:01.044Z,12.57
2023-04-05T15:37:28.148Z,12.91
2023-04-05T15:39:54.733Z,12.60
2023-04-05T15:42:24.253Z,12.37
2023-04-05T15:44:51.395Z,12.47
2023-04-05T15:47:18.490Z,11.83
2023-04-05T15:49:45.127Z,11.24
2023-04-05T15:52:11.733Z,11.97
2023-04-05T15:54:38.360Z,10.93
2023-04-05T15:57:04.925Z,11.01
2023-04-05T15:59:31.602Z,11.27
2023-04-05T16:01:58.250Z,11.44
2023-04-05T16:04:27.086Z,11.53
2023-04-05T16:06:54.572Z,11.35
2023-04-05T16:09:21.155Z,10.94
2023-04-05T16:11:47.760Z,10.70
2023-04-05T16:14:14.320Z,10.43
2023-04-05T16:16:50.101Z,9.91
2023-04-05T16:19:20.076Z,9.92
2023-04-05T16:21:46.595Z,10.36
2023-04-05T16:24:13.148Z,10.33
2023-04-05T16:26:39.795Z,9.80
2023-04-05T16:29:06.404Z,9.92
2023-04-05T16:31:33.095Z,9.83
2023-04-05T16:33:59.747Z,9.72
2023-04-05T16:36:27.516Z,9.60
2023-04-05T16:38:54.033Z,9.38
2023-04-05T16:41:20.700Z,9.34
2023-04-05T16:43:47.243Z,9.10
2023-04-05T16:46:13.958Z,9.46
2023-04-05T16:48:40.934Z,9.30
2023-04-05T16:51:07.513Z,9.24
2023-04-05T16:53:34.318Z,9.05
2023-04-05T16:56:01.040Z,8.95
2023-04-05T16:58:27.553Z,8.80
2023-04-05T17:00:58.710Z,8.73
2023-04-05T17:03:25.902Z,8.45
2023-04-05T17:05:52.653Z,8.65
2023-04-05T17:08:19.325Z,8.42
2023-04-05T17:10:45.926Z,8.43
2023-04-05T17:13:12.465Z,8.50
2023-04-05T17:15:39.036Z,8.00
2023-04-05T17:18:06.355Z,8.51
2023-04-05T17:20:33.175Z,8.27
2023-04-05T17:23:00.894Z,7.85
2023-04-05T17:25:27.489Z,7.85
2023-04-05T17:27:54.082Z,7.81
2023-04-05T17:30:20.680Z,7.67
2023-04-05T17:32:47.517Z,7.60
2023-04-05T17:35:14.351Z,7.55
2023-04-05T17:37:40.976Z,7.46
2023-04-05T17:40:07.847Z,7.44
2023-04-05T17:42:34.671Z,7.56
2023-04-05T17:45:01.425Z,7.51
2023-04-05T17:47:28.097Z,7.68
2023-04-05T17:49:54.749Z,7.55
2023-04-05T17:52:22.608Z,7.38
2023-04-05T17:54:49.223Z,7.21
2023-04-05T17:57:15.954Z,7.32
2023-04-05T17:59:42.821Z,7.10
2023-04-05T18:02:13.232Z,7.47
2023-04-05T18:04:40.334Z,7.24
2023-04-05T18:07:07.469Z,7.03
2023-04-05T18:09:34.641Z,6.99
2023-04-05T18:12:02.303Z,6.69
2023-04-05T18:14:29.079Z,7.08
2023-04-05T18:16:55.614Z,6.78
2023-04-05T18:19:22.190Z,6.79
2023-04-05T18:21:48.665Z,6.71
2023-04-05T18:24:15.470Z,6.55
2023-04-05T18:26:42.122Z,6.52
2023-04-05T18:29:08.700Z,6.39
2023-04-05T18:31:35.279Z,6.33
2023-04-05T18:34:04.782Z,6.34
2023-04-05T18:36:31.558Z,6.40
2023-04-05T18:38:59.375Z,6.37
2023-04-05T18:41:26.784Z,6.51
2023-04-05T18:43:57.247Z,6.28
2023-04-05T18:46:23.922Z,6.17
2023-04-05T18:48:57.646Z,5.96
2023-04-05T18:51:24.666Z,6.15
2023-04-05T18:53:51.354Z,6.25
2023-04-05T18:56:17.941Z,6.17
2023-04-05T18:58:45.378Z,6.16
2023-04-05T19:01:14.396Z,6.31
2023-04-05T19:03:41.200Z,5.88
2023-04-05T19:06:07.771Z,5.90
2023-04-05T19:08:34.314Z,5.75
2023-04-05T19:11:02.983Z,5.60
2023-04-05T19:13:29.569Z,5.57
2023-04-05T19:15:57.051Z,5.58
2023-04-05T19:18:25.941Z,5.50
2023-04-05T19:20:59.434Z,5.45
2023-04-05T19:23:26.742Z,5.16
2023-04-05T19:25:57.031Z,4.71
2023-04-05T19:28:24.133Z,4.89
2023-04-05T19:30:51.045Z,4.59
2023-04-05T19:33:19.642Z,4.19
2023-04-05T19:35:47.693Z,4.32
2023-04-05T19:38:14.300Z,4.23
2023-04-05T19:40:42.203Z,4.08
2023-04-05T19:43:09.063Z,4.14
2023-04-05T19:45:35.825Z,3.92
2023-04-05T19:48:02.844Z,3.76
2023-04-05T19:50:39.866Z,3.79
2023-04-05T19:53:07.284Z,3.51
2023-04-05T19:55:37.967Z,3.49
2023-04-05T19:58:08.453Z,3.35
2023-04-05T20:00:41.217Z,3.59
2023-04-05T20:03:28.800Z,3.52
2023-04-05T20:06:01.861Z,3.27
2023-04-05T20:08:29.061Z,3.41
2023-04-05T20:10:55.704Z,3.27
2023-04-05T20:13:22.280Z,3.13
2023-04-05T20:15:52.656Z,3.16
2023-04-05T20:18:26.738Z,2.90
2023-04-05T20:20:54.268Z,2.32
2023-04-05T20:23:22.481Z,2.41
2023-04-05T20:25:50.841Z,2.51
2023-04-05T20:28:34.197Z,2.50
2023-04-05T20:31:01.567Z,2.68
2023-04-05T20:33:40.849Z,2.72
2023-04-05T20:36:11.162Z,2.57
2023-04-05T20:38:41.510Z,2.74
2023-04-05T20:41:08.733Z,2.71
2023-04-05T20:43:35.626Z,2.78
2023-04-05T20:46:03.205Z,2.75
2023-04-05T20:48:30.170Z,2.76
2023-04-05T20:50:57.353Z,2.80
2023-04-05T20:53:24.240Z,2.71
2023-04-05T20:55:51.133Z,2.71
2023-04-05T20:58:17.716Z,2.69
2023-04-05T21:00:44.310Z,2.66
2023-04-05T21:03:11.759Z,2.40
2023-04-05T21:05:38.691Z,2.54
2023-04-05T21:08:05.401Z,2.64
2023-04-05T21:10:32.767Z,2.71
2023-04-05T21:12:59.581Z,2.64
2023-04-05T21:15:32.128Z,2.52
2023-04-05T21:18:01.844Z,2.53
2023-04-05T21:20:28.871Z,2.48
2023-04-05T21:22:56.244Z,2.47
2023-04-05T21:25:22.831Z,2.29
2023-04-05T21:27:49.449Z,2.25
2023-04-05T21:30:16.582Z,2.40
2023-04-05T21:32:43.644Z,2.08
2023-04-05T21:35:10.635Z,2.12
2023-04-05T21:37:37.243Z,2.23
2023-04-05T21:40:04.389Z,2.30
2023-04-05T21:42:31.509Z,2.27
2023-04-05T21:44:58.075Z,2.17
2023-04-05T21:47:24.845Z,2.18
2023-04-05T21:49:52.888Z,2.19
2023-04-05T21:52:19.575Z,2.11
2023-04-05T21:54:46.360Z,2.21
2023-04-05T21:57:12.875Z,2.24
2023-04-05T21:59:39.443Z,2.15
2023-04-05T22:02:06.919Z,1.87
2023-04-05T22:04:33.581Z,1.82
2023-04-05T22:07:00.308Z,1.78
2023-04-05T22:09:28.164Z,1.77
2023-04-05T22:11:55.158Z,1.64
2023-04-05T22:14:21.783Z,1.46
2023-04-05T22:16:48.361Z,1.54
2023-04-05T22:19:14.991Z,1.35
2023-04-05T22:21:41.953Z,1.40
2023-04-05T22:24:09.301Z,1.43
2023-04-05T22:26:36.198Z,1.49
2023-04-05T22:29:02.973Z,1.55
2023-04-05T22:31:29.718Z,1.33
2023-04-05T22:33:56.365Z,1.22
2023-04-05T22:36:22.855Z,1.27
2023-04-05T22:38:49.994Z,1.29
2023-04-05T22:41:17.745Z,1.23
2023-04-05T22:43:44.214Z,1.16
2023-04-05T22:46:10.873Z,1.27
2023-04-05T22:48:37.609Z,1.25
2023-04-05T22:51:04.167Z,1.31
2023-04-05T22:53:30.750Z,1.15
2023-04-05T22:55:57.262Z,1.15
2023-04-05T22:58:23.844Z,0.97
2023-04-05T23:00:50.446Z,0.94
2023-04-05T23:03:16.953Z,1.03
2023-04-05T23:05:43.494Z,0.85
2023-04-05T23:08:10.040Z,0.91
2023-04-05T23:10:36.581Z,0.76
2023-04-05T23:13:03.071Z,0.85
2023-04-05T23:15:29.694Z,0.92
2023-04-05T23:17:56.216Z,0.56
2023-04-05T23:20:22.751Z,0.40
2023-04-05T23:22:49.271Z,0.51
2023-04-05T23:25:15.932Z,0.66
2023-04-05T23:27:42.526Z,0.50
2023-04-05T23:30:09.250Z,0.65
2023-04-05T23:32:35.875Z,0.66
2023-04-05T23:35:02.521Z,0.66
2023-04-05T23:37:29.026Z,0.66
2023-04-05T23:39:55.585Z,0.74
2023-04-05T23:42:22.130Z,0.75
2023-04-05T23:44:48.682Z,0.86
2023-04-05T23:47:15.671Z,0.85
2023-04-05T23:49:42.194Z,0.91
2023-04-05T23:52:08.709Z,0.42
2023-04-05T23:54:35.465Z,0.28
2023-04-05T23:57:02.256Z,0.33
2023-04-05T23:59:28.852Z,0.31
